sensor_id;sensor_type;location;lat;lon;timestamp;pressure;altitude;pressure_sealevel;temperature;humidity
23679;BME280;12016;51.668;6.874;2023-02-28T00:03:36;102520.38;;;0.46;58.96
23679;BME280;12016;51.668;6.874;2023-02-28T00:09:38;102313.50;;;-0.80;59.01
23679;BME280;12016;51.668;6.874;2023-02-28T00:15:40;102806.13;;;2.25;59.66
23679;BME280;12016;51.668;6.874;2023-02-28T00:21:42;102748.91;;;1.89;59.12
23679;BME280;12016;51.668;6.874;2023-02-28T00:27:45;102730.09;;;1.77;59.80
23679;BME280;12016;51.668;6.874;2023-02-28T00:33:47;102698.25;;;1.64;58.92
23679;BME280;12016;51.668;6.874;2023-02-28T00:39:49;102816.53;;;2.39;58.98
23679;BME280;12016;51.668;6.874;2023-02-28T00:45:51;102823.28;;;2.35;59.08
23679;BME280;12016;51.668;6.874;2023-02-28T00:51:55;102776.47;;;2.14;59.16
23679;BME280;12016;51.668;6.874;2023-02-28T00:58:00;102322.25;;;-0.79;59.30
23679;BME280;12016;51.668;6.874;2023-02-28T01:04:01;102838.00;;;2.38;59.38
23679;BME280;12016;51.668;6.874;2023-02-28T01:10:05;102833.09;;;2.41;58.84
23679;BME280;12016;51.668;6.874;2023-02-28T01:16:07;102555.66;;;0.66;58.14
23679;BME280;12016;51.668;6.874;2023-02-28T01:22:09;102591.00;;;0.73;58.72
23679;BME280;12016;51.668;6.874;2023-02-28T01:28:12;102824.91;;;2.36;59.16
23679;BME280;12016;51.668;6.874;2023-02-28T01:34:15;102823.09;;;2.30;58.91
23679;BME280;12016;51.668;6.874;2023-02-28T01:40:16;102576.28;;;0.64;58.74
23679;BME280;12016;51.668;6.874;2023-02-28T01:46:18;102824.31;;;2.21;59.14
23679;BME280;12016;51.668;6.874;2023-02-28T01:52:22;102819.63;;;2.17;59.42
23679;BME280;12016;51.668;6.874;2023-02-28T01:58:28;102550.16;;;0.48;60.13
23679;BME280;12016;51.668;6.874;2023-02-28T02:04:38;102297.91;;;-1.09;59.83
23679;BME280;12016;51.668;6.874;2023-02-28T02:17:08;102800.81;;;1.98;60.31
23679;BME280;12016;51.668;6.874;2023-02-28T02:23:52;102794.69;;;1.91;60.24
23679;BME280;12016;51.668;6.874;2023-02-28T02:36:24;102398.47;;;-0.55;60.14
23679;BME280;12016;51.668;6.874;2023-02-28T02:42:38;102549.06;;;0.22;60.47
23679;BME280;12016;51.668;6.874;2023-02-28T02:48:43;102786.25;;;1.48;60.73
23679;BME280;12016;51.668;6.874;2023-02-28T02:54:48;102781.94;;;1.27;60.69
23679;BME280;12016;51.668;6.874;2023-02-28T03:00:57;102365.13;;;-1.59;60.90
23679;BME280;12016;51.668;6.874;2023-02-28T03:07:01;102729.00;;;0.52;61.44
23679;BME280;12016;51.668;6.874;2023-02-28T03:26:03;102790.78;;;0.87;62.14
23679;BME280;12016;51.668;6.874;2023-02-28T03:32:13;102800.56;;;0.86;61.75
23679;BME280;12016;51.668;6.874;2023-02-28T03:38:25;102804.63;;;0.82;62.55
23679;BME280;12016;51.668;6.874;2023-02-28T03:44:36;102796.66;;;0.82;62.71
23679;BME280;12016;51.668;6.874;2023-02-28T03:50:42;102802.97;;;0.81;62.31
23679;BME280;12016;51.668;6.874;2023-02-28T03:56:52;102682.66;;;0.00;62.91
23679;BME280;12016;51.668;6.874;2023-02-28T04:02:57;102796.03;;;0.74;62.83
23679;BME280;12016;51.668;6.874;2023-02-28T04:09:00;102442.38;;;-1.57;63.01
23679;BME280;12016;51.668;6.874;2023-02-28T04:15:02;102808.38;;;0.60;62.80
23679;BME280;12016;51.668;6.874;2023-02-28T04:21:05;102808.50;;;0.45;62.80
23679;BME280;12016;51.668;6.874;2023-02-28T04:27:08;102811.06;;;0.32;62.49
23679;BME280;12016;51.668;6.874;2023-02-28T04:33:10;102810.66;;;0.07;62.98
23679;BME280;12016;51.668;6.874;2023-02-28T04:39:18;102833.66;;;0.00;63.19
23679;BME280;12016;51.668;6.874;2023-02-28T04:45:21;102635.44;;;-1.59;63.16
23679;BME280;12016;51.668;6.874;2023-02-28T04:51:22;102778.69;;;-0.41;62.90
23679;BME280;12016;51.668;6.874;2023-02-28T04:57:24;102817.13;;;-0.23;63.67
23679;BME280;12016;51.668;6.874;2023-02-28T05:03:26;102816.56;;;-0.40;64.06
23679;BME280;12016;51.668;6.874;2023-02-28T05:09:28;102805.06;;;-0.68;64.56
23679;BME280;12016;51.668;6.874;2023-02-28T05:15:30;102812.00;;;-0.67;64.88
23679;BME280;12016;51.668;6.874;2023-02-28T05:21:49;102821.78;;;-0.68;64.51
23679;BME280;12016;51.668;6.874;2023-02-28T05:27:51;102829.44;;;-0.73;65.46
23679;BME280;12016;51.668;6.874;2023-02-28T05:33:53;102699.72;;;-1.52;63.42
23679;BME280;12016;51.668;6.874;2023-02-28T05:39:55;102837.16;;;-0.57;63.67
23679;BME280;12016;51.668;6.874;2023-02-28T05:45:56;102780.38;;;-0.90;64.26
23679;BME280;12016;51.668;6.874;2023-02-28T05:51:58;102909.44;;;-0.56;63.85
23679;BME280;12016;51.668;6.874;2023-02-28T05:58:00;102819.16;;;-0.83;63.62
23679;BME280;12016;51.668;6.874;2023-02-28T06:04:03;102855.31;;;-0.54;64.38
23679;BME280;12016;51.668;6.874;2023-02-28T06:10:06;102853.91;;;-0.50;64.82
23679;BME280;12016;51.668;6.874;2023-02-28T06:16:10;102860.84;;;-0.49;64.51
23679;BME280;12016;51.668;6.874;2023-02-28T06:22:12;102625.91;;;-1.89;64.31
23679;BME280;12016;51.668;6.874;2023-02-28T06:28:14;102793.53;;;-0.82;63.90
23679;BME280;12016;51.668;6.874;2023-02-28T06:34:16;102871.06;;;-0.46;63.84
23679;BME280;12016;51.668;6.874;2023-02-28T06:40:18;102876.91;;;-0.50;64.30
23679;BME280;12016;51.668;6.874;2023-02-28T06:46:20;102747.69;;;-1.69;64.11
23679;BME280;12016;51.668;6.874;2023-02-28T06:52:23;102874.59;;;-0.89;64.72
23679;BME280;12016;51.668;6.874;2023-02-28T06:58:24;102882.47;;;-1.11;65.35
23679;BME280;12016;51.668;6.874;2023-02-28T07:04:29;102066.19;;;-6.19;64.86
23679;BME280;12016;51.668;6.874;2023-02-28T07:10:33;102744.94;;;-1.61;64.42
23679;BME280;12016;51.668;6.874;2023-02-28T07:16:35;102775.88;;;-1.26;64.27
23679;BME280;12016;51.668;6.874;2023-02-28T07:22:37;102790.34;;;-0.92;64.21
23679;BME280;12016;51.668;6.874;2023-02-28T07:28:41;102900.81;;;-0.08;64.30
23679;BME280;12016;51.668;6.874;2023-02-28T07:34:44;102817.31;;;-0.46;64.66
23679;BME280;12016;51.668;6.874;2023-02-28T07:40:45;102921.28;;;0.26;64.59
23679;BME280;12016;51.668;6.874;2023-02-28T07:46:47;102908.78;;;0.42;64.31
23679;BME280;12016;51.668;6.874;2023-02-28T07:52:49;102689.03;;;-0.93;63.20
23679;BME280;12016;51.668;6.874;2023-02-28T07:58:52;102908.22;;;0.74;63.62
23679;BME280;12016;51.668;6.874;2023-02-28T08:04:55;102953.84;;;0.91;63.66
23679;BME280;12016;51.668;6.874;2023-02-28T08:11:03;102914.34;;;1.09;63.50
23679;BME280;12016;51.668;6.874;2023-02-28T08:17:05;102679.63;;;-0.25;62.73
23679;BME280;12016;51.668;6.874;2023-02-28T08:23:07;102921.25;;;1.38;62.33
23679;BME280;12016;51.668;6.874;2023-02-28T08:29:09;102904.69;;;1.36;62.33
23679;BME280;12016;51.668;6.874;2023-02-28T08:35:11;102848.09;;;1.29;61.42
23679;BME280;12016;51.668;6.874;2023-02-28T08:41:13;102808.03;;;1.17;60.78
23679;BME280;12016;51.668;6.874;2023-02-28T08:47:15;102936.78;;;2.02;60.04
23679;BME280;12016;51.668;6.874;2023-02-28T08:53:17;102845.50;;;1.49;59.05
23679;BME280;12016;51.668;6.874;2023-02-28T08:59:19;102908.81;;;2.32;58.69
23679;BME280;12016;51.668;6.874;2023-02-28T09:05:21;102901.00;;;2.50;56.95
23679;BME280;12016;51.668;6.874;2023-02-28T09:11:23;102618.13;;;0.82;56.29
23679;BME280;12016;51.668;6.874;2023-02-28T09:17:24;102895.66;;;2.77;53.83
23679;BME280;12016;51.668;6.874;2023-02-28T09:23:26;102816.09;;;2.56;53.90
23679;BME280;12016;51.668;6.874;2023-02-28T09:29:28;102890.25;;;3.16;51.47
23679;BME280;12016;51.668;6.874;2023-02-28T09:35:30;102732.47;;;2.45;51.96
23679;BME280;12016;51.668;6.874;2023-02-28T09:41:36;102885.97;;;3.60;48.58
23679;BME280;12016;51.668;6.874;2023-02-28T09:47:42;102889.66;;;3.90;46.27
23679;BME280;12016;51.668;6.874;2023-02-28T09:53:46;102887.69;;;4.11;45.99
23679;BME280;12016;51.668;6.874;2023-02-28T10:00:05;102890.97;;;4.38;44.63
23679;BME280;12016;51.668;6.874;2023-02-28T10:06:18;102913.94;;;4.63;44.69
23679;BME280;12016;51.668;6.874;2023-02-28T10:12:21;102700.56;;;3.95;46.83
23679;BME280;12016;51.668;6.874;2023-02-28T10:18:39;102876.38;;;5.68;44.99
23679;BME280;12016;51.668;6.874;2023-02-28T10:24:44;102879.63;;;6.12;43.58
23679;BME280;12016;51.668;6.874;2023-02-28T10:30:47;102861.91;;;13.11;35.39
23679;BME280;12016;51.668;6.874;2023-02-28T10:36:49;102847.00;;;19.23;23.27
23679;BME280;12016;51.668;6.874;2023-02-28T10:49:06;102849.25;;;24.14;17.40
23679;BME280;12016;51.668;6.874;2023-02-28T10:55:20;102847.69;;;25.11;15.98
23679;BME280;12016;51.668;6.874;2023-02-28T11:07:37;102838.78;;;25.98;15.58
23679;BME280;12016;51.668;6.874;2023-02-28T11:13:56;102849.50;;;20.70;19.00
23679;BME280;12016;51.668;6.874;2023-02-28T11:20:02;102846.31;;;22.14;19.74
23679;BME280;12016;51.668;6.874;2023-02-28T11:26:05;102834.41;;;23.59;17.28
23679;BME280;12016;51.668;6.874;2023-02-28T11:32:18;102844.13;;;25.87;16.73
23679;BME280;12016;51.668;6.874;2023-02-28T11:38:21;102827.53;;;27.38;15.17
23679;BME280;12016;51.668;6.874;2023-02-28T11:44:32;102812.06;;;28.63;14.38
23679;BME280;12016;51.668;6.874;2023-02-28T11:50:49;102822.25;;;29.03;13.31
23679;BME280;12016;51.668;6.874;2023-02-28T11:57:15;102822.59;;;28.98;13.64
23679;BME280;12016;51.668;6.874;2023-02-28T12:03:35;102818.28;;;24.99;16.12
23679;BME280;12016;51.668;6.874;2023-02-28T12:09:52;102800.88;;;27.27;14.85
23679;BME280;12016;51.668;6.874;2023-02-28T12:28:34;102748.69;;;31.31;11.58
23679;BME280;12016;51.668;6.874;2023-02-28T12:34:41;102742.16;;;32.07;11.61
23679;BME280;12016;51.668;6.874;2023-02-28T12:40:47;102743.53;;;31.88;11.80
23679;BME280;12016;51.668;6.874;2023-02-28T12:46:54;102735.28;;;31.15;11.60
23679;BME280;12016;51.668;6.874;2023-02-28T12:53:02;102725.63;;;30.29;12.61
23679;BME280;12016;51.668;6.874;2023-02-28T12:59:17;102729.84;;;28.99;13.30
23679;BME280;12016;51.668;6.874;2023-02-28T13:11:42;102715.94;;;26.94;14.98
23679;BME280;12016;51.668;6.874;2023-02-28T13:17:44;102722.69;;;25.91;15.51
23679;BME280;12016;51.668;6.874;2023-02-28T13:29:58;102713.81;;;23.77;16.51
23679;BME280;12016;51.668;6.874;2023-02-28T13:48:25;102705.63;;;22.93;17.01
23679;BME280;12016;51.668;6.874;2023-02-28T14:00:37;102704.22;;;21.29;18.96
23679;BME280;12016;51.668;6.874;2023-02-28T14:06:51;102706.44;;;21.48;18.95
23679;BME280;12016;51.668;6.874;2023-02-28T14:19:00;102712.25;;;21.46;19.24
23679;BME280;12016;51.668;6.874;2023-02-28T14:31:37;102706.94;;;20.75;20.40
23679;BME280;12016;51.668;6.874;2023-02-28T14:37:41;102698.78;;;19.61;21.81
23679;BME280;12016;51.668;6.874;2023-02-28T14:43:54;102702.97;;;20.34;21.75
23679;BME280;12016;51.668;6.874;2023-02-28T14:49:58;102691.28;;;20.76;21.19
23679;BME280;12016;51.668;6.874;2023-02-28T14:56:00;102689.16;;;20.60;21.71
23679;BME280;12016;51.668;6.874;2023-02-28T15:02:21;102687.00;;;22.10;19.93
23679;BME280;12016;51.668;6.874;2023-02-28T15:08:24;102680.69;;;21.07;19.96
23679;BME280;12016;51.668;6.874;2023-02-28T15:14:26;102671.09;;;21.34;20.58
23679;BME280;12016;51.668;6.874;2023-02-28T15:20:31;102671.97;;;21.71;20.27
23679;BME280;12016;51.668;6.874;2023-02-28T15:26:34;102670.78;;;22.05;19.75
23679;BME280;12016;51.668;6.874;2023-02-28T15:32:37;102672.72;;;20.81;21.43
23679;BME280;12016;51.668;6.874;2023-02-28T15:38:41;102660.53;;;19.99;22.15
23679;BME280;12016;51.668;6.874;2023-02-28T15:44:43;102676.03;;;18.05;24.32
23679;BME280;12016;51.668;6.874;2023-02-28T15:50:50;102672.34;;;16.59;25.02
23679;BME280;12016;51.668;6.874;2023-02-28T15:56:53;102679.94;;;15.80;27.11
23679;BME280;12016;51.668;6.874;2023-02-28T16:02:56;102678.19;;;15.56;27.86
23679;BME280;12016;51.668;6.874;2023-02-28T16:08:58;102679.16;;;14.77;28.17
23679;BME280;12016;51.668;6.874;2023-02-28T16:15:01;102675.22;;;14.21;28.94
23679;BME280;12016;51.668;6.874;2023-02-28T16:21:04;102674.13;;;13.46;30.27
23679;BME280;12016;51.668;6.874;2023-02-28T16:27:10;102679.00;;;13.10;30.80
23679;BME280;12016;51.668;6.874;2023-02-28T16:33:16;102680.03;;;12.75;31.13
23679;BME280;12016;51.668;6.874;2023-02-28T16:39:19;102691.69;;;12.06;32.58
23679;BME280;12016;51.668;6.874;2023-02-28T16:45:24;102691.47;;;11.62;32.89
23679;BME280;12016;51.668;6.874;2023-02-28T16:51:26;102692.28;;;11.27;33.28
23679;BME280;12016;51.668;6.874;2023-02-28T16:57:28;102698.13;;;10.73;33.35
23679;BME280;12016;51.668;6.874;2023-02-28T17:03:31;102703.94;;;10.39;34.40
23679;BME280;12016;51.668;6.874;2023-02-28T17:09:35;102707.22;;;10.04;34.82
23679;BME280;12016;51.668;6.874;2023-02-28T17:15:43;102708.94;;;9.74;35.95
23679;BME280;12016;51.668;6.874;2023-02-28T17:21:47;102721.09;;;9.49;36.99
23679;BME280;12016;51.668;6.874;2023-02-28T17:27:49;102728.91;;;9.19;36.92
23679;BME280;12016;51.668;6.874;2023-02-28T17:33:53;102722.22;;;8.94;36.88
23679;BME280;12016;51.668;6.874;2023-02-28T17:39:56;102728.13;;;8.70;38.41
23679;BME280;12016;51.668;6.874;2023-02-28T17:45:59;102727.41;;;8.36;38.38
23679;BME280;12016;51.668;6.874;2023-02-28T17:52:00;102730.84;;;8.14;39.21
23679;BME280;12016;51.668;6.874;2023-02-28T17:58:02;102741.84;;;7.96;39.57
23679;BME280;12016;51.668;6.874;2023-02-28T18:04:04;102743.91;;;7.72;40.24
23679;BME280;12016;51.668;6.874;2023-02-28T18:10:07;102744.13;;;7.54;40.32
23679;BME280;12016;51.668;6.874;2023-02-28T18:16:14;102742.50;;;7.36;40.75
23679;BME280;12016;51.668;6.874;2023-02-28T18:22:16;102749.91;;;7.17;41.81
23679;BME280;12016;51.668;6.874;2023-02-28T18:28:19;102751.59;;;7.07;41.54
23679;BME280;12016;51.668;6.874;2023-02-28T18:34:21;102758.06;;;6.94;42.43
23679;BME280;12016;51.668;6.874;2023-02-28T18:40:23;102749.63;;;6.74;43.07
23679;BME280;12016;51.668;6.874;2023-02-28T18:46:50;102761.06;;;6.58;43.90
23679;BME280;12016;51.668;6.874;2023-02-28T18:52:53;102763.31;;;6.37;44.72
23679;BME280;12016;51.668;6.874;2023-02-28T18:58:55;102764.03;;;6.21;44.94
23679;BME280;12016;51.668;6.874;2023-02-28T19:04:58;102761.22;;;6.16;43.57
23679;BME280;12016;51.668;6.874;2023-02-28T19:11:12;102759.03;;;6.01;45.53
23679;BME280;12016;51.668;6.874;2023-02-28T19:17:18;102766.00;;;5.91;45.78
23679;BME280;12016;51.668;6.874;2023-02-28T19:23:20;102747.94;;;5.86;45.37
23679;BME280;12016;51.668;6.874;2023-02-28T19:29:22;102760.94;;;5.71;45.60
23679;BME280;12016;51.668;6.874;2023-02-28T19:35:24;102767.22;;;5.65;45.89
23679;BME280;12016;51.668;6.874;2023-02-28T19:41:26;102758.50;;;5.58;45.59
23679;BME280;12016;51.668;6.874;2023-02-28T19:47:28;102767.53;;;5.45;46.89
23679;BME280;12016;51.668;6.874;2023-02-28T19:53:36;102769.81;;;5.42;46.27
23679;BME280;12016;51.668;6.874;2023-02-28T19:59:39;102779.66;;;5.29;47.48
23679;BME280;12016;51.668;6.874;2023-02-28T20:05:40;102784.03;;;5.24;47.06
23679;BME280;12016;51.668;6.874;2023-02-28T20:11:44;102795.06;;;5.16;47.23
23679;BME280;12016;51.668;6.874;2023-02-28T20:17:46;102790.59;;;5.10;47.37
23679;BME280;12016;51.668;6.874;2023-02-28T20:23:48;102787.81;;;5.05;47.43
23679;BME280;12016;51.668;6.874;2023-02-28T20:29:50;102782.75;;;4.96;47.89
23679;BME280;12016;51.668;6.874;2023-02-28T20:36:00;102783.91;;;4.89;48.18
23679;BME280;12016;51.668;6.874;2023-02-28T20:42:02;102793.38;;;4.85;48.09
23679;BME280;12016;51.668;6.874;2023-02-28T20:48:04;102784.06;;;4.76;48.56
23679;BME280;12016;51.668;6.874;2023-02-28T20:54:07;102784.19;;;4.62;49.17
23679;BME280;12016;51.668;6.874;2023-02-28T21:00:09;102789.25;;;4.52;49.69
23679;BME280;12016;51.668;6.874;2023-02-28T21:06:20;102795.75;;;4.38;50.80
23679;BME280;12016;51.668;6.874;2023-02-28T21:12:22;102799.50;;;4.30;51.03
23679;BME280;12016;51.668;6.874;2023-02-28T21:18:24;102788.31;;;4.22;51.05
23679;BME280;12016;51.668;6.874;2023-02-28T21:24:25;102790.44;;;4.13;51.29
23679;BME280;12016;51.668;6.874;2023-02-28T21:30:27;102800.63;;;3.98;52.58
23679;BME280;12016;51.668;6.874;2023-02-28T21:36:30;102807.41;;;3.94;51.81
23679;BME280;12016;51.668;6.874;2023-02-28T21:42:36;102805.03;;;3.86;52.43
23679;BME280;12016;51.668;6.874;2023-02-28T21:48:38;102799.41;;;3.69;53.00
23679;BME280;12016;51.668;6.874;2023-02-28T21:54:40;102792.03;;;3.65;53.57
23679;BME280;12016;51.668;6.874;2023-02-28T22:00:43;102815.91;;;3.53;53.23
23679;BME280;12016;51.668;6.874;2023-02-28T22:06:47;102801.22;;;3.44;53.84
23679;BME280;12016;51.668;6.874;2023-02-28T22:12:49;102802.03;;;3.38;54.45
23679;BME280;12016;51.668;6.874;2023-02-28T22:18:52;102799.44;;;3.31;53.71
23679;BME280;12016;51.668;6.874;2023-02-28T22:24:55;102799.09;;;3.21;54.51
23679;BME280;12016;51.668;6.874;2023-02-28T22:30:57;102791.59;;;3.05;54.67
23679;BME280;12016;51.668;6.874;2023-02-28T22:37:00;102794.88;;;3.00;55.01
23679;BME280;12016;51.668;6.874;2023-02-28T22:43:02;102796.13;;;2.98;54.49
23679;BME280;12016;51.668;6.874;2023-02-28T22:49:04;102786.50;;;2.97;54.61
23679;BME280;12016;51.668;6.874;2023-02-28T22:55:09;102789.03;;;2.78;54.89
23679;BME280;12016;51.668;6.874;2023-02-28T23:01:28;102785.59;;;2.65;53.83
23679;BME280;12016;51.668;6.874;2023-02-28T23:07:32;102794.22;;;2.54;55.30
23679;BME280;12016;51.668;6.874;2023-02-28T23:13:34;102827.78;;;2.41;55.49
23679;BME280;12016;51.668;6.874;2023-02-28T23:19:39;102808.97;;;2.36;56.13
23679;BME280;12016;51.668;6.874;2023-02-28T23:25:41;102816.13;;;2.36;56.74
23679;BME280;12016;51.668;6.874;2023-02-28T23:31:42;102808.75;;;2.44;55.86
23679;BME280;12016;51.668;6.874;2023-02-28T23:37:44;102815.50;;;2.47;55.76
23679;BME280;12016;51.668;6.874;2023-02-28T23:43:46;102816.13;;;2.42;56.38
23679;BME280;12016;51.668;6.874;2023-02-28T23:49:48;102822.88;;;2.45;55.50
23679;BME280;12016;51.668;6.874;2023-02-28T23:55:49;102833.09;;;2.41;55.62
